Time;durP1;ratioP1;P1;durP2;ratioP2;P2;SDS_P1;SDS_P2;PMS_P1;PMS_P2;Temp;Humidity;BMP_temperature;BMP_pressure;BME280_temperature;BME280_humidity;BME280_pressure;Samples;Min_cycle;Max_cycle;Signal;HPM_P1;HPM_P2
2023/12/03 00:01:59;;;;;;;37.47;16.25;;;-4.40;99.90;;;;;;4979530;28;20026;-87
2023/12/03 00:04:24;;;;;;;36.38;15.52;;;-4.40;99.90;;;;;;4979198;28;20134;-87
2023/12/03 00:06:52;;;;;;;31.55;15.45;;;-4.40;99.90;;;;;;4995591;28;20450;-87
2023/12/03 00:13:05;;;;;;;35.85;14.90;;;-4.50;99.90;;;;;;4996201;28;20041;-86
2023/12/03 00:15:30;;;;;;;33.70;16.17;;;-4.50;99.90;;;;;;4995862;28;20038;-87
2023/12/03 00:17:56;;;;;;;31.65;15.25;;;-4.50;99.90;;;;;;4995344;28;20057;-87
2023/12/03 00:20:22;;;;;;;31.25;14.60;;;-4.50;99.90;;;;;;4979508;28;20042;-87
2023/12/03 00:22:47;;;;;;;33.88;14.93;;;-4.50;99.90;;;;;;4978524;28;20806;-86
2023/12/03 00:25:13;;;;;;;33.65;14.32;;;-4.50;99.90;;;;;;4978969;28;20077;-86
2023/12/03 00:27:39;;;;;;;31.58;15.13;;;-4.50;99.90;;;;;;4980250;28;20490;-86
2023/12/03 00:30:05;;;;;;;71.25;23.83;;;-4.40;99.90;;;;;;4979914;28;20029;-88
2023/12/03 00:32:31;;;;;;;43.45;17.88;;;-4.50;99.90;;;;;;4978846;28;20034;-87
2023/12/03 00:34:57;;;;;;;43.97;18.58;;;-4.50;99.90;;;;;;4978832;28;20033;-87
2023/12/03 00:37:22;;;;;;;34.92;15.77;;;-4.50;99.90;;;;;;4994663;28;20032;-85
2023/12/03 00:39:48;;;;;;;39.33;17.27;;;-4.50;99.90;;;;;;4978654;28;20031;-87
2023/12/03 00:42:14;;;;;;;37.58;17.50;;;-4.40;99.90;;;;;;4995648;28;20038;-87
2023/12/03 00:44:39;;;;;;;38.30;17.65;;;-4.50;99.90;;;;;;4978536;28;20032;-87
2023/12/03 00:47:08;;;;;;;38.35;17.30;;;-4.50;99.90;;;;;;4995005;28;20125;-87
2023/12/03 00:49:34;;;;;;;45.33;17.98;;;-4.60;99.90;;;;;;4979509;28;20027;-86
2023/12/03 00:51:59;;;;;;;39.33;17.85;;;-4.60;99.90;;;;;;4994776;28;20042;-86
2023/12/03 00:54:26;;;;;;;39.83;17.55;;;-4.60;99.90;;;;;;4996621;28;20026;-86
2023/12/03 00:56:52;;;;;;;41.70;18.23;;;-4.60;99.90;;;;;;4978731;28;20030;-87
2023/12/03 00:59:18;;;;;;;40.33;18.77;;;-4.60;99.90;;;;;;4995429;28;20052;-88
2023/12/03 01:01:43;;;;;;;41.35;18.42;;;-4.60;99.90;;;;;;4997411;28;20022;-87
2023/12/03 01:04:09;;;;;;;49.92;20.88;;;-4.70;99.90;;;;;;4979356;28;20118;-87
2023/12/03 01:06:50;;;;;;;44.67;18.88;;;-4.70;99.90;;;;;;4995387;28;20505;-87
2023/12/03 01:09:16;;;;;;;50.42;21.10;;;-4.70;99.90;;;;;;4979365;28;20554;-85
2023/12/03 01:11:42;;;;;;;51.50;22.17;;;-4.70;99.90;;;;;;4995774;28;20034;-87
2023/12/03 01:14:08;;;;;;;61.53;22.02;;;-4.70;99.90;;;;;;4996862;28;20528;-87
2023/12/03 01:16:34;;;;;;;43.97;20.67;;;-4.70;99.90;;;;;;4980454;28;20118;-85
2023/12/03 01:18:59;;;;;;;51.75;21.25;;;-4.70;99.90;;;;;;4996703;28;20529;-86
2023/12/03 01:21:25;;;;;;;49.17;20.88;;;-4.80;99.90;;;;;;4995902;28;20085;-88
2023/12/03 01:23:52;;;;;;;49.90;20.98;;;-4.80;99.90;;;;;;4996159;28;20042;-86
2023/12/03 01:26:18;;;;;;;51.13;21.80;;;-4.90;99.90;;;;;;4995539;28;20129;-86
2023/12/03 01:28:43;;;;;;;49.85;23.05;;;-5.00;99.90;;;;;;4993890;28;20680;-87
2023/12/03 01:31:09;;;;;;;56.60;22.27;;;-5.10;99.90;;;;;;4993537;28;20032;-86
2023/12/03 01:33:35;;;;;;;51.60;22.55;;;-5.20;99.90;;;;;;4995307;28;20017;-85
2023/12/03 01:36:00;;;;;;;50.47;21.00;;;-5.30;99.90;;;;;;4993414;28;20042;-86
2023/12/03 01:38:26;;;;;;;54.47;22.17;;;-5.40;99.90;;;;;;4977304;28;20406;-87
2023/12/03 01:40:53;;;;;;;57.90;24.58;;;-5.50;99.90;;;;;;4993348;28;20026;-86
2023/12/03 01:43:19;;;;;;;58.53;24.17;;;-5.60;99.90;;;;;;4977823;28;20116;-88
2023/12/03 01:45:45;;;;;;;57.88;24.27;;;-5.60;99.90;;;;;;4995505;28;20042;-86
2023/12/03 01:48:12;;;;;;;58.17;23.88;;;-5.70;99.90;;;;;;4978021;28;20038;-87
2023/12/03 01:50:42;;;;;;;57.35;23.38;;;-5.70;99.90;;;;;;4978156;28;20481;-86
2023/12/03 01:53:09;;;;;;;79.00;31.77;;;-5.70;99.90;;;;;;4978073;28;20045;-87
2023/12/03 01:55:40;;;;;;;81.38;29.55;;;-5.70;99.90;;;;;;4978393;28;20493;-86
2023/12/03 01:58:25;;;;;;;93.07;35.15;;;-5.70;99.90;;;;;;4977941;28;20085;-86
2023/12/03 02:00:51;;;;;;;89.50;34.47;;;-5.80;99.90;;;;;;4994442;28;20045;-87
2023/12/03 02:03:18;;;;;;;90.65;32.83;;;-5.90;99.90;;;;;;4978184;28;20137;-86
2023/12/03 02:06:04;;;;;;;74.72;29.10;;;-6.00;99.90;;;;;;4993768;28;20089;-86
2023/12/03 02:08:31;;;;;;;63.50;27.45;;;-6.00;99.90;;;;;;4977571;28;20049;-86
2023/12/03 02:10:58;;;;;;;71.95;27.38;;;-6.00;99.90;;;;;;4995937;28;20105;-86
2023/12/03 02:13:25;;;;;;;73.95;28.25;;;-6.00;99.90;;;;;;4993676;28;20034;-86
2023/12/03 02:15:50;;;;;;;82.22;28.85;;;-6.00;99.90;;;;;;4993769;28;20081;-86
2023/12/03 02:18:16;;;;;;;73.75;28.70;;;-6.00;99.90;;;;;;4977733;28;20042;-86
2023/12/03 02:20:42;;;;;;;71.82;28.00;;;-6.00;99.90;;;;;;4978274;28;20034;-86
2023/12/03 02:23:07;;;;;;;70.82;27.92;;;-6.00;99.90;;;;;;4977687;28;20109;-86
2023/12/03 02:25:33;;;;;;;84.50;32.30;;;-6.00;99.90;;;;;;4994794;28;20034;-85
2023/12/03 02:28:21;;;;;;;82.60;31.67;;;-5.90;99.90;;;;;;4977655;28;20034;-86
2023/12/03 02:30:46;;;;;;;67.85;27.40;;;-6.00;99.90;;;;;;4977287;28;20034;-85
2023/12/03 02:33:12;;;;;;;77.63;29.30;;;-6.00;99.90;;;;;;4993885;28;20092;-85
2023/12/03 02:35:38;;;;;;;65.90;25.02;;;-6.00;99.90;;;;;;4977963;28;20430;-86
2023/12/03 02:38:03;;;;;;;70.95;27.33;;;-6.00;99.90;;;;;;4977012;28;20044;-86
2023/12/03 02:40:33;;;;;;;78.53;30.00;;;-5.80;99.90;;;;;;4977548;28;20018;-86
2023/12/03 02:42:59;;;;;;;84.35;31.55;;;-5.80;99.90;;;;;;4977366;28;20030;-86
2023/12/03 02:45:25;;;;;;;78.38;30.00;;;-5.80;99.90;;;;;;4993072;28;20034;-86
2023/12/03 02:47:50;;;;;;;91.18;35.33;;;-5.70;99.90;;;;;;4979666;28;20045;-86
2023/12/03 02:50:57;;;;;;;76.45;29.92;;;-5.70;99.90;;;;;;4980715;28;20027;-86
2023/12/03 02:53:22;;;;;;;84.88;32.83;;;-5.70;99.90;;;;;;4980865;28;20045;-86
2023/12/03 02:55:48;;;;;;;77.97;30.60;;;-5.70;99.90;;;;;;4996862;28;20065;-86
2023/12/03 02:58:13;;;;;;;77.95;28.80;;;-5.70;99.90;;;;;;4996867;28;20030;-86
2023/12/03 03:00:39;;;;;;;85.75;31.02;;;-5.80;99.90;;;;;;4980505;28;20066;-86
2023/12/03 03:03:05;;;;;;;83.75;31.00;;;-5.80;99.90;;;;;;4980457;28;20039;-86
2023/12/03 03:05:30;;;;;;;81.45;29.98;;;-5.70;99.90;;;;;;4996708;28;20037;-86
2023/12/03 03:07:56;;;;;;;86.30;30.80;;;-5.70;99.90;;;;;;4980030;28;20044;-86
2023/12/03 03:10:22;;;;;;;86.38;33.03;;;-5.70;99.90;;;;;;4996484;28;20113;-85
2023/12/03 03:12:47;;;;;;;92.03;32.63;;;-5.70;99.90;;;;;;4996793;28;20703;-86
2023/12/03 03:15:13;;;;;;;85.70;32.33;;;-5.80;99.90;;;;;;4996759;28;20059;-86
2023/12/03 03:17:39;;;;;;;86.32;32.80;;;-5.80;99.90;;;;;;4980637;28;20077;-86
2023/12/03 03:20:05;;;;;;;86.55;31.60;;;-5.90;99.90;;;;;;4980537;28;20030;-86
2023/12/03 03:22:31;;;;;;;93.35;31.85;;;-5.90;99.90;;;;;;4980362;28;20517;-86
2023/12/03 03:24:58;;;;;;;96.20;34.40;;;-6.00;99.90;;;;;;4995993;28;20034;-86
2023/12/03 03:27:24;;;;;;;101.50;36.38;;;-6.10;99.90;;;;;;4997298;28;20062;-86
2023/12/03 03:29:50;;;;;;;97.20;34.63;;;-6.10;99.90;;;;;;4980365;28;20038;-86
2023/12/03 03:32:16;;;;;;;94.55;33.13;;;-6.00;99.90;;;;;;4996222;28;20038;-86
2023/12/03 03:34:41;;;;;;;95.07;34.42;;;-5.90;99.90;;;;;;4996577;28;20057;-86
2023/12/03 03:37:07;;;;;;;91.95;32.55;;;-5.80;99.90;;;;;;4980602;28;20074;-87
2023/12/03 03:39:33;;;;;;;100.68;35.25;;;-5.70;99.90;;;;;;4980243;28;20039;-87
2023/12/03 03:41:58;;;;;;;102.68;34.50;;;-5.70;99.90;;;;;;4995529;28;20425;-86
2023/12/03 03:44:24;;;;;;;90.10;32.97;;;-5.60;99.90;;;;;;4979437;28;20409;-87
2023/12/03 03:46:50;;;;;;;88.32;32.60;;;-5.60;99.90;;;;;;4997546;28;20066;-86
2023/12/03 03:49:15;;;;;;;91.85;32.88;;;-5.60;99.90;;;;;;4980236;28;20026;-87
2023/12/03 03:51:41;;;;;;;90.22;33.97;;;-5.50;99.90;;;;;;4979931;28;20069;-87
2023/12/03 03:54:06;;;;;;;98.82;32.15;;;-5.40;99.90;;;;;;4996399;28;20030;-87
2023/12/03 03:56:32;;;;;;;88.60;33.38;;;-5.40;99.90;;;;;;4996476;28;20035;-87
2023/12/03 03:58:58;;;;;;;94.50;33.25;;;-5.40;99.90;;;;;;4978993;28;20745;-86
2023/12/03 04:01:24;;;;;;;85.32;31.20;;;-5.40;99.90;;;;;;4997078;28;20042;-87
2023/12/03 04:03:50;;;;;;;94.47;32.80;;;-5.30;99.90;;;;;;4995743;28;20038;-87
2023/12/03 04:06:15;;;;;;;87.70;32.20;;;-5.30;99.90;;;;;;4995296;28;20074;-86
2023/12/03 04:08:41;;;;;;;88.25;32.90;;;-5.20;99.90;;;;;;4979185;28;20098;-87
2023/12/03 04:11:07;;;;;;;91.65;33.40;;;-5.20;99.90;;;;;;4995171;28;20027;-87
2023/12/03 04:13:33;;;;;;;86.47;32.05;;;-5.20;99.90;;;;;;4978823;28;20121;-86
2023/12/03 04:15:59;;;;;;;92.35;33.35;;;-5.10;99.90;;;;;;4979009;28;20486;-87
2023/12/03 04:18:24;;;;;;;101.18;35.55;;;-5.10;99.90;;;;;;4995601;28;20080;-87
2023/12/03 04:20:50;;;;;;;92.00;33.88;;;-5.00;99.90;;;;;;4979449;28;20038;-88
2023/12/03 04:23:16;;;;;;;99.68;35.33;;;-5.00;99.90;;;;;;4978961;28;20037;-86
2023/12/03 04:25:42;;;;;;;96.22;36.45;;;-4.90;99.90;;;;;;4995639;28;20030;-86
2023/12/03 04:28:09;;;;;;;97.05;33.40;;;-4.90;99.90;;;;;;4995298;28;20026;-86
2023/12/03 04:30:37;;;;;;;104.65;34.72;;;-5.00;99.90;;;;;;4995307;28;20038;-87
2023/12/03 04:33:03;;;;;;;94.78;31.58;;;-5.10;99.90;;;;;;4978672;28;20052;-87
2023/12/03 04:35:30;;;;;;;97.40;34.72;;;-5.30;99.90;;;;;;4996301;28;20038;-87
2023/12/03 04:37:56;;;;;;;81.68;31.60;;;-5.40;99.90;;;;;;4995779;28;20385;-86
2023/12/03 04:40:21;;;;;;;90.90;33.75;;;-5.50;99.90;;;;;;4995119;28;20042;-86
2023/12/03 04:42:47;;;;;;;102.60;33.47;;;-5.40;99.90;;;;;;4979080;28;20038;-86
2023/12/03 04:45:12;;;;;;;91.72;32.78;;;-5.40;99.90;;;;;;4979227;28;20137;-86
2023/12/03 04:47:38;;;;;;;94.22;32.38;;;-5.40;99.90;;;;;;4978964;28;20137;-87
2023/12/03 04:50:04;;;;;;;103.63;34.95;;;-5.30;99.90;;;;;;4994849;28;20024;-86
2023/12/03 04:52:30;;;;;;;102.53;35.90;;;-5.30;99.90;;;;;;4978950;28;20038;-85
2023/12/03 04:54:56;;;;;;;92.53;33.00;;;-5.30;99.90;;;;;;4979097;28;20470;-86
2023/12/03 04:57:21;;;;;;;105.93;36.22;;;-5.30;99.90;;;;;;4994724;28;20037;-86
2023/12/03 04:59:47;;;;;;;104.22;35.03;;;-5.40;99.90;;;;;;4977904;28;20057;-86
2023/12/03 05:02:12;;;;;;;96.60;33.22;;;-5.50;99.90;;;;;;4993951;28;20026;-86
2023/12/03 05:04:38;;;;;;;91.00;32.30;;;-5.60;99.90;;;;;;4978073;28;20034;-86
2023/12/03 05:07:04;;;;;;;92.20;32.15;;;-5.60;99.90;;;;;;4994325;28;20386;-86
2023/12/03 05:09:30;;;;;;;97.97;32.20;;;-5.60;99.90;;;;;;4992962;28;20706;-86
2023/12/03 05:11:55;;;;;;;100.55;34.80;;;-5.60;99.90;;;;;;4993835;28;20071;-86
2023/12/03 05:14:21;;;;;;;97.32;35.38;;;-5.50;99.90;;;;;;4994140;28;20131;-86
2023/12/03 05:16:47;;;;;;;105.43;37.42;;;-5.40;99.90;;;;;;4994397;28;20089;-86
2023/12/03 05:20:05;;;;;;;99.93;34.50;;;-5.20;99.90;;;;;;4994636;28;20625;-86
2023/12/03 05:22:31;;;;;;;101.60;33.47;;;-5.10;99.90;;;;;;4978306;28;20432;-85
2023/12/03 05:24:57;;;;;;;104.75;33.60;;;-5.00;99.90;;;;;;4976922;28;20117;-86
2023/12/03 05:27:22;;;;;;;97.30;33.10;;;-4.90;99.90;;;;;;4994145;28;20037;-86
2023/12/03 05:29:48;;;;;;;93.50;33.75;;;-4.90;99.90;;;;;;4994756;28;20722;-86
2023/12/03 05:32:14;;;;;;;92.13;32.63;;;-4.80;99.90;;;;;;4994158;28;20040;-85
2023/12/03 05:34:46;;;;;;;97.43;34.80;;;-4.80;99.90;;;;;;4994790;28;20034;-86
2023/12/03 05:37:12;;;;;;;94.38;34.03;;;-4.70;99.90;;;;;;4979321;28;20433;-85
2023/12/03 05:39:39;;;;;;;99.60;35.50;;;-4.70;99.90;;;;;;4978336;28;20061;-85
2023/12/03 05:42:04;;;;;;;92.95;33.85;;;-4.70;99.90;;;;;;4977949;28;20126;-86
2023/12/03 05:44:30;;;;;;;92.18;34.08;;;-4.70;99.90;;;;;;4994392;28;20114;-85
2023/12/03 05:46:56;;;;;;;95.60;33.70;;;-4.70;99.90;;;;;;4978482;28;20129;-85
2023/12/03 05:49:22;;;;;;;98.63;35.42;;;-4.70;99.90;;;;;;4994078;28;20449;-85
2023/12/03 05:51:48;;;;;;;98.25;34.03;;;-4.60;99.90;;;;;;4994396;28;20404;-85
2023/12/03 05:54:14;;;;;;;88.18;33.33;;;-4.70;99.90;;;;;;4977762;28;20429;-85
2023/12/03 05:56:40;;;;;;;91.85;34.72;;;-4.70;99.90;;;;;;4977969;28;20034;-85
2023/12/03 05:59:05;;;;;;;86.07;31.35;;;-4.70;99.90;;;;;;4994312;28;20045;-85
2023/12/03 06:01:31;;;;;;;94.43;31.42;;;-4.70;99.90;;;;;;4994468;28;20791;-85
2023/12/03 06:04:37;;;;;;;90.57;31.98;;;-4.70;99.90;;;;;;4994539;28;20022;-85
2023/12/03 06:07:03;;;;;;;82.47;29.95;;;-4.80;99.90;;;;;;4993317;28;20046;-85
2023/12/03 06:09:29;;;;;;;89.95;30.90;;;-4.80;99.90;;;;;;4994525;28;20031;-85
2023/12/03 06:11:54;;;;;;;91.43;33.92;;;-4.80;99.90;;;;;;4993409;28;20038;-85
2023/12/03 06:14:22;;;;;;;87.97;31.02;;;-4.90;99.90;;;;;;4977370;28;20420;-85
2023/12/03 06:16:47;;;;;;;79.95;28.23;;;-4.90;99.90;;;;;;4977806;28;20033;-85
2023/12/03 06:19:13;;;;;;;73.57;27.83;;;-4.90;99.90;;;;;;4977346;28;20042;-85
2023/12/03 06:21:39;;;;;;;76.30;29.08;;;-4.90;99.90;;;;;;4994815;28;20401;-85
2023/12/03 06:24:05;;;;;;;76.40;29.58;;;-4.90;99.90;;;;;;4997227;28;20050;-85
2023/12/03 06:26:36;;;;;;;79.15;29.38;;;-4.90;99.90;;;;;;4998287;28;20117;-85
2023/12/03 06:29:02;;;;;;;82.30;32.15;;;-4.90;99.90;;;;;;4997751;28;20039;-85
2023/12/03 06:31:28;;;;;;;78.40;28.73;;;-4.90;99.90;;;;;;4998130;28;20030;-85
2023/12/03 06:33:54;;;;;;;81.85;30.63;;;-4.90;99.90;;;;;;4998049;28;20110;-85
2023/12/03 06:36:21;;;;;;;73.18;28.77;;;-4.90;99.90;;;;;;4998901;28;20050;-86
2023/12/03 06:38:47;;;;;;;77.75;27.80;;;-4.90;99.90;;;;;;4997673;28;20041;-85
2023/12/03 06:41:12;;;;;;;80.97;32.08;;;-5.00;99.90;;;;;;4981706;28;20592;-86
2023/12/03 06:43:38;;;;;;;76.47;28.17;;;-5.00;99.90;;;;;;4997412;28;20038;-86
2023/12/03 06:46:04;;;;;;;89.22;32.05;;;-5.00;99.90;;;;;;4998257;28;20132;-85
2023/12/03 06:48:30;;;;;;;75.97;30.45;;;-5.10;99.90;;;;;;4996539;28;20034;-86
2023/12/03 06:50:55;;;;;;;76.32;29.30;;;-5.20;99.90;;;;;;4981743;28;20037;-86
2023/12/03 06:53:21;;;;;;;78.97;29.40;;;-5.20;99.90;;;;;;4997116;28;20485;-86
2023/12/03 06:55:47;;;;;;;68.05;25.33;;;-5.40;99.90;;;;;;4998804;28;20033;-86
2023/12/03 06:58:12;;;;;;;79.25;30.15;;;-5.40;99.90;;;;;;4997059;28;20038;-86
2023/12/03 07:00:39;;;;;;;77.03;27.60;;;-5.50;99.90;;;;;;4996674;28;20035;-86
2023/12/03 07:03:04;;;;;;;71.85;27.23;;;-5.60;99.90;;;;;;4999419;28;20129;-84
2023/12/03 07:05:30;;;;;;;85.03;28.15;;;-5.70;99.90;;;;;;4994659;28;20113;-84
2023/12/03 07:07:56;;;;;;;78.88;28.52;;;-5.80;99.90;;;;;;4977066;28;20034;-84
2023/12/03 07:10:22;;;;;;;83.18;29.75;;;-5.90;99.90;;;;;;4995653;28;20034;-83
2023/12/03 07:12:48;;;;;;;76.57;28.85;;;-5.90;99.90;;;;;;4995124;28;20117;-83
2023/12/03 07:15:13;;;;;;;82.35;29.63;;;-6.00;99.90;;;;;;4978845;28;20049;-83
2023/12/03 07:17:39;;;;;;;78.28;29.45;;;-6.10;99.90;;;;;;4994970;28;20629;-83
2023/12/03 07:20:07;;;;;;;94.35;32.47;;;-6.10;99.90;;;;;;4994652;28;20062;-83
2023/12/03 07:22:33;;;;;;;90.45;33.47;;;-6.10;99.90;;;;;;4982459;28;20046;-83
2023/12/03 07:24:58;;;;;;;92.82;32.13;;;-6.20;99.90;;;;;;4978833;28;20466;-83
2023/12/03 07:27:24;;;;;;;90.32;32.97;;;-6.20;99.90;;;;;;4995016;28;20041;-83
2023/12/03 07:29:55;;;;;;;85.90;32.33;;;-6.20;99.90;;;;;;4995813;28;20041;-83
2023/12/03 07:32:26;;;;;;;86.95;29.88;;;-6.30;99.90;;;;;;4980220;28;20088;-83
2023/12/03 07:34:52;;;;;;;87.57;32.03;;;-6.40;99.90;;;;;;4978423;28;20038;-83
2023/12/03 07:37:18;;;;;;;83.80;31.95;;;-6.30;99.90;;;;;;4978126;28;20497;-83
2023/12/03 07:39:43;;;;;;;92.72;32.85;;;-6.30;99.90;;;;;;4997061;28;20030;-83
2023/12/03 07:42:09;;;;;;;100.35;34.80;;;-6.20;99.90;;;;;;4996424;28;20041;-83
2023/12/03 07:44:36;;;;;;;92.97;33.33;;;-6.20;99.90;;;;;;4978522;28;20037;-83
2023/12/03 07:47:03;;;;;;;98.93;35.70;;;-6.10;99.90;;;;;;4977817;28;20038;-83
2023/12/03 07:49:29;;;;;;;82.85;31.85;;;-6.10;99.90;;;;;;4978187;28;20027;-83
2023/12/03 07:51:55;;;;;;;125.57;41.10;;;-6.00;99.90;;;;;;4978727;28;20792;-83
2023/12/03 07:54:21;;;;;;;104.13;33.85;;;-6.00;99.90;;;;;;4978201;28;20045;-83
2023/12/03 07:56:47;;;;;;;102.72;33.22;;;-5.90;99.90;;;;;;4998352;28;20042;-84
2023/12/03 07:59:13;;;;;;;92.18;32.85;;;-5.80;99.90;;;;;;4978259;28;20573;-82
2023/12/03 08:01:38;;;;;;;105.13;34.47;;;-5.80;99.90;;;;;;4980149;28;20129;-83
2023/12/03 08:04:04;;;;;;;99.32;34.25;;;-5.80;99.90;;;;;;4995555;28;20045;-83
2023/12/03 08:06:30;;;;;;;90.75;32.67;;;-5.70;99.90;;;;;;4978444;28;20085;-83
2023/12/03 08:08:57;;;;;;;93.15;32.67;;;-5.70;99.90;;;;;;4997584;28;20113;-83
2023/12/03 08:11:23;;;;;;;92.97;31.58;;;-5.60;99.90;;;;;;4994068;28;20037;-83
2023/12/03 08:13:49;;;;;;;91.50;32.75;;;-5.40;99.90;;;;;;4978136;28;20034;-84
2023/12/03 08:16:16;;;;;;;87.30;31.48;;;-5.00;99.90;;;;;;4994217;28;20470;-83
2023/12/03 08:18:42;;;;;;;75.38;27.75;;;-4.70;99.90;;;;;;4977605;28;20034;-83
2023/12/03 08:21:11;;;;;;;78.38;30.30;;;-4.60;99.90;;;;;;4993621;28;20034;-83
2023/12/03 08:23:37;;;;;;;78.85;31.02;;;-4.70;99.90;;;;;;4995111;28;20031;-83
2023/12/03 08:26:04;;;;;;;69.18;29.98;;;-4.80;99.90;;;;;;4994311;28;20037;-83
2023/12/03 08:28:30;;;;;;;77.93;29.08;;;-4.90;99.90;;;;;;4977426;28;20034;-83
2023/12/03 08:30:56;;;;;;;82.38;32.90;;;-5.00;99.90;;;;;;4993340;28;20543;-83
2023/12/03 08:33:21;;;;;;;82.07;30.67;;;-4.90;99.90;;;;;;4993810;28;20105;-83
2023/12/03 08:35:47;;;;;;;87.35;30.33;;;-5.00;99.90;;;;;;4994730;28;20097;-84
2023/12/03 08:38:13;;;;;;;80.70;31.05;;;-5.00;99.90;;;;;;4981634;28;20050;-84
2023/12/03 08:40:39;;;;;;;83.95;31.48;;;-4.90;99.90;;;;;;4977144;28;20031;-83
2023/12/03 08:43:05;;;;;;;73.97;27.58;;;-4.90;99.90;;;;;;4997698;28;20050;-83
2023/12/03 08:45:32;;;;;;;68.95;26.27;;;-4.90;99.90;;;;;;4993134;28;20034;-83
2023/12/03 08:48:00;;;;;;;81.18;28.00;;;-4.90;99.90;;;;;;4992935;28;20034;-84
2023/12/03 08:50:28;;;;;;;76.38;27.48;;;-4.90;99.90;;;;;;4992729;28;20034;-83
2023/12/03 08:52:55;;;;;;;68.95;27.30;;;-4.90;99.90;;;;;;4976770;28;20077;-84
2023/12/03 08:55:20;;;;;;;70.85;26.80;;;-4.80;99.90;;;;;;4993934;28;20792;-84
2023/12/03 08:57:47;;;;;;;79.40;28.73;;;-4.80;99.90;;;;;;4977590;28;20065;-82
2023/12/03 09:00:15;;;;;;;78.50;30.13;;;-4.80;99.90;;;;;;4976947;28;20045;-82
2023/12/03 09:02:45;;;;;;;72.97;29.23;;;-4.70;99.90;;;;;;4995061;28;20042;-82
2023/12/03 09:05:11;;;;;;;66.35;27.83;;;-4.60;99.90;;;;;;4977968;28;20069;-82
2023/12/03 09:07:37;;;;;;;64.45;25.15;;;-4.60;99.90;;;;;;4997578;28;20136;-82
2023/12/03 09:10:04;;;;;;;72.68;26.90;;;-4.60;99.90;;;;;;4993853;28;20089;-82
2023/12/03 09:12:31;;;;;;;61.10;25.42;;;-4.50;99.90;;;;;;4993333;28;20116;-82
2023/12/03 09:14:56;;;;;;;65.18;25.63;;;-4.40;99.90;;;;;;4991281;28;20046;-83
2023/12/03 09:17:22;;;;;;;65.35;26.17;;;-4.40;99.90;;;;;;4993607;28;20358;-82
2023/12/03 09:19:49;;;;;;;67.97;24.98;;;-4.30;99.90;;;;;;4992679;28;20030;-83
2023/12/03 09:26:02;;;;;;;66.45;23.92;;;-4.20;99.90;;;;;;4994462;28;20032;-83
2023/12/03 09:28:30;;;;;;;60.00;23.10;;;-4.10;99.90;;;;;;4977100;28;20038;-82
2023/12/03 09:30:57;;;;;;;66.93;24.45;;;-4.10;99.90;;;;;;4976113;28;20034;-83
2023/12/03 09:33:27;;;;;;;61.97;24.45;;;-3.90;99.90;;;;;;4978319;28;20096;-83
2023/12/03 09:36:25;;;;;;;60.13;23.38;;;-3.70;99.90;;;;;;4977618;28;20034;-83
2023/12/03 09:38:50;;;;;;;54.65;22.85;;;-3.30;99.90;;;;;;4993262;28;20181;-83
2023/12/03 09:41:18;;;;;;;51.65;22.90;;;-2.50;99.90;;;;;;4976655;28;20065;-83
2023/12/03 09:43:46;;;;;;;47.42;21.38;;;-1.80;99.90;;;;;;4975921;28;20041;-83
2023/12/03 09:46:13;;;;;;;50.10;22.35;;;-1.20;99.90;;;;;;4977530;28;20027;-83
2023/12/03 09:48:42;;;;;;;51.47;20.63;;;-0.80;99.90;;;;;;4976807;28;20043;-84
2023/12/03 09:51:27;;;;;;;46.28;21.15;;;-1.00;99.90;;;;;;4976735;28;20034;-83
2023/12/03 09:53:57;;;;;;;44.95;21.15;;;-0.80;99.90;;;;;;4993698;28;20038;-83
2023/12/03 09:56:25;;;;;;;53.25;26.05;;;-0.60;99.90;;;;;;4978800;28;20036;-85
2023/12/03 09:58:51;;;;;;;46.08;21.55;;;-0.30;99.90;;;;;;4999046;28;20077;-85
2023/12/03 10:01:17;;;;;;;45.92;22.88;;;0.10;99.90;;;;;;4982819;28;20056;-84
2023/12/03 10:03:43;;;;;;;50.38;22.95;;;0.10;99.90;;;;;;4999121;28;20038;-84
2023/12/03 10:06:11;;;;;;;47.83;22.52;;;-0.20;99.90;;;;;;5001529;28;20027;-86
2023/12/03 10:08:39;;;;;;;50.20;21.58;;;-0.30;99.90;;;;;;5003187;28;20080;-84
2023/12/03 10:11:06;;;;;;;40.95;20.30;;;-0.50;99.90;;;;;;5001548;28;20054;-86
2023/12/03 10:14:15;;;;;;;38.28;19.17;;;-0.60;99.90;;;;;;5001668;28;20027;-85
2023/12/03 10:16:49;;;;;;;56.78;24.58;;;-0.70;99.90;;;;;;4985496;28;20053;-84
2023/12/03 10:19:26;;;;;;;54.63;24.30;;;-0.80;99.90;;;;;;4985047;28;20394;-86
2023/12/03 10:21:53;;;;;;;77.93;32.47;;;-1.10;99.90;;;;;;5002948;28;20030;-84
2023/12/03 10:24:19;;;;;;;59.10;27.48;;;-1.30;99.90;;;;;;4984882;28;20030;-84
2023/12/03 10:26:54;;;;;;;69.80;30.98;;;-1.40;99.90;;;;;;4985890;28;20040;-84
2023/12/03 10:29:19;;;;;;;60.80;27.98;;;-1.70;99.90;;;;;;4988082;28;20051;-85
2023/12/03 10:32:10;;;;;;;45.03;20.15;;;-1.90;99.90;;;;;;4985651;28;20041;-84
2023/12/03 10:34:45;;;;;;;42.05;20.08;;;-2.00;99.90;;;;;;4984248;28;20038;-84
2023/12/03 10:37:15;;;;;;;47.50;21.88;;;-2.10;99.90;;;;;;4985788;28;20034;-85
2023/12/03 10:39:59;;;;;;;47.35;20.73;;;-2.10;99.90;;;;;;4987650;28;20078;-85
2023/12/03 10:42:25;;;;;;;43.10;20.05;;;-2.20;99.90;;;;;;4983693;28;20053;-84
2023/12/03 10:45:07;;;;;;;43.85;19.45;;;-2.40;99.90;;;;;;5000535;28;20034;-83
2023/12/03 10:47:34;;;;;;;48.08;20.65;;;-2.50;99.90;;;;;;4999164;28;20409;-83
2023/12/03 10:50:02;;;;;;;49.97;21.48;;;-2.50;99.90;;;;;;5000367;28;20073;-83
2023/12/03 10:52:33;;;;;;;43.25;18.98;;;-2.50;99.90;;;;;;4981508;28;20034;-84
2023/12/03 10:54:59;;;;;;;43.13;19.38;;;-2.60;99.90;;;;;;4983157;28;20026;-83
2023/12/03 10:57:29;;;;;;;45.08;19.60;;;-2.30;99.90;;;;;;5001664;28;20022;-83
2023/12/03 11:00:00;;;;;;;45.42;20.23;;;-2.00;99.90;;;;;;4999728;28;20062;-83
2023/12/03 11:02:32;;;;;;;46.13;20.52;;;-1.90;99.90;;;;;;4984561;28;20509;-84
2023/12/03 11:05:05;;;;;;;43.55;20.02;;;-1.90;99.90;;;;;;4999521;28;20049;-83
2023/12/03 11:07:33;;;;;;;42.55;18.08;;;-2.20;99.90;;;;;;5001180;28;20053;-83
2023/12/03 11:09:58;;;;;;;45.33;21.15;;;-2.40;99.90;;;;;;4999748;28;20401;-83
2023/12/03 11:12:25;;;;;;;48.70;20.70;;;-2.50;99.90;;;;;;4979200;28;20045;-83
2023/12/03 11:14:52;;;;;;;51.25;20.40;;;-2.50;99.90;;;;;;4978749;28;20381;-84
2023/12/03 11:17:33;;;;;;;43.17;18.58;;;-2.20;99.90;;;;;;4978319;28;20038;-83
2023/12/03 11:20:14;;;;;;;47.40;20.17;;;-2.10;99.90;;;;;;4978229;28;20659;-84
2023/12/03 11:22:49;;;;;;;47.53;19.03;;;-1.90;99.90;;;;;;4995567;28;20382;-84
2023/12/03 11:25:19;;;;;;;39.28;18.80;;;-1.80;99.90;;;;;;4977800;28;20296;-85
2023/12/03 11:27:46;;;;;;;43.83;18.98;;;-1.80;99.90;;;;;;4977468;28;20030;-84
2023/12/03 11:30:39;;;;;;;42.60;19.23;;;-1.60;99.90;;;;;;4979458;28;20030;-83
2023/12/03 11:33:19;;;;;;;46.22;21.15;;;-1.40;99.90;;;;;;4979243;28;20027;-84
2023/12/03 11:35:46;;;;;;;44.72;20.38;;;-1.50;99.90;;;;;;4978708;28;20394;-83
2023/12/03 11:38:21;;;;;;;42.90;18.60;;;-1.50;99.90;;;;;;4978124;28;20624;-85
2023/12/03 11:40:48;;;;;;;44.55;19.80;;;-1.40;99.90;;;;;;4982192;28;20034;-84
2023/12/03 11:43:27;;;;;;;43.65;19.92;;;-1.10;99.90;;;;;;4978737;28;20034;-84
2023/12/03 11:45:52;;;;;;;48.47;19.98;;;-0.80;99.90;;;;;;4977899;28;20557;-84
2023/12/03 11:48:36;;;;;;;47.35;19.33;;;-0.70;99.90;;;;;;4994043;28;20117;-83
2023/12/03 11:51:02;;;;;;;47.67;19.92;;;-1.20;99.90;;;;;;4994105;28;20026;-84
2023/12/03 11:53:45;;;;;;;47.35;20.02;;;-1.60;99.90;;;;;;4995094;28;20084;-84
2023/12/03 11:56:17;;;;;;;46.83;19.33;;;-1.80;99.90;;;;;;4977423;28;20490;-84
2023/12/03 11:58:43;;;;;;;50.63;21.63;;;-2.00;99.90;;;;;;4993136;28;20038;-84
2023/12/03 12:01:29;;;;;;;51.05;20.65;;;-2.10;99.90;;;;;;4993069;28;20034;-84
2023/12/03 12:03:55;;;;;;;48.10;20.35;;;-2.20;99.90;;;;;;4992609;28;20808;-85
2023/12/03 12:06:27;;;;;;;50.20;20.13;;;-2.30;99.90;;;;;;4976678;28;20034;-84
2023/12/03 12:08:53;;;;;;;56.70;21.65;;;-2.30;99.90;;;;;;4976857;28;20030;-84
2023/12/03 12:15:08;;;;;;;53.22;22.17;;;-2.40;99.90;;;;;;4995128;28;20033;-84
2023/12/03 12:17:33;;;;;;;63.10;24.30;;;-2.50;99.90;;;;;;4993738;28;20040;-85
2023/12/03 12:19:59;;;;;;;53.13;22.60;;;-2.60;99.90;;;;;;4976395;28;20030;-84
2023/12/03 12:22:25;;;;;;;55.97;24.10;;;-2.50;99.90;;;;;;4993276;28;20533;-84
2023/12/03 12:25:09;;;;;;;56.45;22.95;;;-2.60;99.90;;;;;;4992994;28;20034;-85
2023/12/03 12:27:34;;;;;;;50.50;22.10;;;-2.50;99.90;;;;;;4980575;28;20048;-84
2023/12/03 12:30:00;;;;;;;52.50;21.85;;;-2.50;99.90;;;;;;4993017;28;20133;-84
2023/12/03 12:32:26;;;;;;;57.03;22.23;;;-2.50;99.90;;;;;;4977067;28;20022;-84
2023/12/03 12:34:52;;;;;;;52.50;21.63;;;-2.50;99.90;;;;;;4976270;28;20472;-84
2023/12/03 12:37:23;;;;;;;52.53;23.63;;;-2.50;99.90;;;;;;4992113;28;20035;-85
2023/12/03 12:39:49;;;;;;;47.92;20.95;;;-2.40;99.90;;;;;;4992476;28;20125;-84
2023/12/03 12:42:24;;;;;;;51.00;21.48;;;-2.50;99.90;;;;;;4992570;28;20038;-84